La Jose, Pennsylvania
Current Conditions -  °F | °C
As of 10:54 AM on Monday 22 Dec 2014 (Local Time) from KFIG Reporting Station
Few Clouds Few Clouds  
Wind Chill: 21°   Ceiling: Unl
Heat Index: 28°   Visibility: 9mi
Dew Point: 23°   Wind: 7mph
Humidity: 81%   Direction: 60°ENE
Pressure: 30.19"   Gusts: NA
Location:  40.85°N, 78.7°W
Report Text: KFIG 221554Z AUTO 06006KT 9SM FEW017 M02/M05 A3019 RMK AO2 SLP244 T10221050
Loading
Personal Weather Stations






























Interactive Weather Map New forecast layout! Learn more

10-Day Weather Forecast

Advertisements
Track Severe Weather on mobile